sensor_id;sensor_type;location;lat;lon;timestamp;P1;durP1;ratioP1;P2;durP2;ratioP2
75005;SDS011;63553;51.814;4.600;2022-12-22T00:02:15;9.85;;;6.75;;
75005;SDS011;63553;51.814;4.600;2022-12-22T00:05:01;11.43;;;7.22;;
75005;SDS011;63553;51.814;4.600;2022-12-22T00:07:45;10.85;;;6.50;;
75005;SDS011;63553;51.814;4.600;2022-12-22T00:10:29;11.07;;;6.95;;
75005;SDS011;63553;51.814;4.600;2022-12-22T00:13:14;9.77;;;7.05;;
75005;SDS011;63553;51.814;4.600;2022-12-22T00:15:58;8.52;;;6.32;;
75005;SDS011;63553;51.814;4.600;2022-12-22T00:18:42;11.07;;;6.90;;
75005;SDS011;63553;51.814;4.600;2022-12-22T00:21:27;8.05;;;6.28;;
75005;SDS011;63553;51.814;4.600;2022-12-22T00:24:13;10.55;;;6.28;;
75005;SDS011;63553;51.814;4.600;2022-12-22T00:26:57;9.60;;;6.50;;
75005;SDS011;63553;51.814;4.600;2022-12-22T00:29:41;10.35;;;6.15;;
75005;SDS011;63553;51.814;4.600;2022-12-22T00:32:27;8.88;;;6.40;;
75005;SDS011;63553;51.814;4.600;2022-12-22T00:35:19;8.27;;;5.93;;
75005;SDS011;63553;51.814;4.600;2022-12-22T00:38:23;9.00;;;6.32;;
75005;SDS011;63553;51.814;4.600;2022-12-22T00:41:07;8.63;;;6.05;;
75005;SDS011;63553;51.814;4.600;2022-12-22T00:43:51;9.10;;;6.25;;
75005;SDS011;63553;51.814;4.600;2022-12-22T00:46:35;8.88;;;6.82;;
75005;SDS011;63553;51.814;4.600;2022-12-22T00:49:23;9.30;;;6.22;;
75005;SDS011;63553;51.814;4.600;2022-12-22T00:52:09;6.45;;;5.35;;
75005;SDS011;63553;51.814;4.600;2022-12-22T00:54:53;9.13;;;6.82;;
75005;SDS011;63553;51.814;4.600;2022-12-22T00:57:37;8.43;;;5.60;;
75005;SDS011;63553;51.814;4.600;2022-12-22T01:00:24;7.70;;;5.88;;
75005;SDS011;63553;51.814;4.600;2022-12-22T01:03:09;9.88;;;5.95;;
75005;SDS011;63553;51.814;4.600;2022-12-22T01:05:53;8.57;;;5.82;;
75005;SDS011;63553;51.814;4.600;2022-12-22T01:08:38;9.15;;;6.03;;
75005;SDS011;63553;51.814;4.600;2022-12-22T01:11:22;6.95;;;5.78;;
75005;SDS011;63553;51.814;4.600;2022-12-22T01:14:09;7.57;;;5.85;;
75005;SDS011;63553;51.814;4.600;2022-12-22T01:16:54;8.93;;;5.63;;
75005;SDS011;63553;51.814;4.600;2022-12-22T01:19:38;8.45;;;6.25;;
75005;SDS011;63553;51.814;4.600;2022-12-22T01:22:22;7.35;;;5.30;;
75005;SDS011;63553;51.814;4.600;2022-12-22T01:25:10;8.23;;;5.78;;
75005;SDS011;63553;51.814;4.600;2022-12-22T01:30:40;7.40;;;5.28;;
75005;SDS011;63553;51.814;4.600;2022-12-22T01:33:24;6.05;;;5.22;;
75005;SDS011;63553;51.814;4.600;2022-12-22T01:36:08;7.90;;;6.03;;
75005;SDS011;63553;51.814;4.600;2022-12-22T01:38:53;5.95;;;5.20;;
75005;SDS011;63553;51.814;4.600;2022-12-22T01:41:37;7.15;;;5.43;;
75005;SDS011;63553;51.814;4.600;2022-12-22T01:44:21;8.23;;;5.43;;
75005;SDS011;63553;51.814;4.600;2022-12-22T01:50:15;6.43;;;5.07;;
75005;SDS011;63553;51.814;4.600;2022-12-22T01:53:02;6.40;;;4.60;;
75005;SDS011;63553;51.814;4.600;2022-12-22T01:55:50;6.85;;;5.18;;
75005;SDS011;63553;51.814;4.600;2022-12-22T01:58:37;7.50;;;4.93;;
75005;SDS011;63553;51.814;4.600;2022-12-22T02:01:25;5.20;;;4.70;;
75005;SDS011;63553;51.814;4.600;2022-12-22T02:04:11;6.65;;;5.32;;
75005;SDS011;63553;51.814;4.600;2022-12-22T02:06:56;5.72;;;4.70;;
75005;SDS011;63553;51.814;4.600;2022-12-22T02:10:02;5.57;;;4.68;;
75005;SDS011;63553;51.814;4.600;2022-12-22T02:13:24;7.82;;;5.18;;
75005;SDS011;63553;51.814;4.600;2022-12-22T02:29:17;7.68;;;5.22;;
75005;SDS011;63553;51.814;4.600;2022-12-22T02:32:05;6.05;;;4.82;;
75005;SDS011;63553;51.814;4.600;2022-12-22T02:34:49;6.22;;;4.88;;
75005;SDS011;63553;51.814;4.600;2022-12-22T02:47:25;6.80;;;5.18;;
75005;SDS011;63553;51.814;4.600;2022-12-22T02:50:30;6.97;;;4.45;;
75005;SDS011;63553;51.814;4.600;2022-12-22T02:53:18;7.18;;;5.25;;
75005;SDS011;63553;51.814;4.600;2022-12-22T02:56:04;7.38;;;5.22;;
75005;SDS011;63553;51.814;4.600;2022-12-22T02:58:50;6.18;;;5.10;;
75005;SDS011;63553;51.814;4.600;2022-12-22T03:01:34;8.70;;;4.95;;
75005;SDS011;63553;51.814;4.600;2022-12-22T03:04:19;6.22;;;4.90;;
75005;SDS011;63553;51.814;4.600;2022-12-22T03:07:02;7.53;;;5.15;;
75005;SDS011;63553;51.814;4.600;2022-12-22T03:09:46;6.00;;;4.50;;
75005;SDS011;63553;51.814;4.600;2022-12-22T03:12:30;5.72;;;4.50;;
75005;SDS011;63553;51.814;4.600;2022-12-22T03:15:14;6.85;;;5.50;;
75005;SDS011;63553;51.814;4.600;2022-12-22T03:18:06;6.45;;;5.20;;
75005;SDS011;63553;51.814;4.600;2022-12-22T03:20:52;6.28;;;5.00;;
75005;SDS011;63553;51.814;4.600;2022-12-22T03:23:37;7.85;;;4.93;;
75005;SDS011;63553;51.814;4.600;2022-12-22T03:26:21;5.85;;;4.63;;
75005;SDS011;63553;51.814;4.600;2022-12-22T03:28:47;5.57;;;4.47;;
75005;SDS011;63553;51.814;4.600;2022-12-22T03:31:12;5.78;;;4.68;;
75005;SDS011;63553;51.814;4.600;2022-12-22T03:33:37;7.57;;;5.55;;
75005;SDS011;63553;51.814;4.600;2022-12-22T03:36:04;6.60;;;5.03;;
75005;SDS011;63553;51.814;4.600;2022-12-22T03:38:30;7.10;;;5.00;;
75005;SDS011;63553;51.814;4.600;2022-12-22T03:40:56;6.18;;;4.82;;
75005;SDS011;63553;51.814;4.600;2022-12-22T03:43:21;5.30;;;4.67;;
75005;SDS011;63553;51.814;4.600;2022-12-22T03:46:04;5.65;;;4.38;;
75005;SDS011;63553;51.814;4.600;2022-12-22T03:48:53;6.55;;;5.18;;
75005;SDS011;63553;51.814;4.600;2022-12-22T03:54:04;6.90;;;4.57;;
75005;SDS011;63553;51.814;4.600;2022-12-22T03:56:30;5.35;;;4.68;;
75005;SDS011;63553;51.814;4.600;2022-12-22T03:58:56;7.10;;;5.10;;
75005;SDS011;63553;51.814;4.600;2022-12-22T04:01:21;7.95;;;5.30;;
75005;SDS011;63553;51.814;4.600;2022-12-22T04:03:47;6.53;;;5.05;;
75005;SDS011;63553;51.814;4.600;2022-12-22T04:06:14;6.05;;;4.70;;
75005;SDS011;63553;51.814;4.600;2022-12-22T04:08:39;6.95;;;5.15;;
75005;SDS011;63553;51.814;4.600;2022-12-22T04:11:05;6.18;;;4.75;;
75005;SDS011;63553;51.814;4.600;2022-12-22T04:13:49;5.50;;;4.60;;
75005;SDS011;63553;51.814;4.600;2022-12-22T04:16:14;8.03;;;5.13;;
75005;SDS011;63553;51.814;4.600;2022-12-22T04:18:39;6.97;;;5.17;;
75005;SDS011;63553;51.814;4.600;2022-12-22T04:21:05;10.47;;;6.13;;
75005;SDS011;63553;51.814;4.600;2022-12-22T04:23:30;5.80;;;4.50;;
75005;SDS011;63553;51.814;4.600;2022-12-22T04:25:55;5.80;;;4.73;;
75005;SDS011;63553;51.814;4.600;2022-12-22T04:28:21;7.13;;;5.40;;
75005;SDS011;63553;51.814;4.600;2022-12-22T04:30:48;6.73;;;5.47;;
75005;SDS011;63553;51.814;4.600;2022-12-22T04:33:14;5.97;;;4.63;;
75005;SDS011;63553;51.814;4.600;2022-12-22T04:35:39;12.40;;;5.03;;
75005;SDS011;63553;51.814;4.600;2022-12-22T04:38:04;6.47;;;5.13;;
75005;SDS011;63553;51.814;4.600;2022-12-22T04:40:30;6.50;;;4.47;;
75005;SDS011;63553;51.814;4.600;2022-12-22T04:42:55;6.93;;;4.90;;
75005;SDS011;63553;51.814;4.600;2022-12-22T04:45:20;11.27;;;5.67;;
75005;SDS011;63553;51.814;4.600;2022-12-22T04:47:46;6.55;;;5.07;;
75005;SDS011;63553;51.814;4.600;2022-12-22T04:50:11;9.20;;;5.33;;
75005;SDS011;63553;51.814;4.600;2022-12-22T04:52:36;7.53;;;4.70;;
75005;SDS011;63553;51.814;4.600;2022-12-22T04:55:02;8.25;;;5.40;;
75005;SDS011;63553;51.814;4.600;2022-12-22T04:57:28;7.03;;;5.43;;
75005;SDS011;63553;51.814;4.600;2022-12-22T04:59:53;6.93;;;5.13;;
75005;SDS011;63553;51.814;4.600;2022-12-22T05:02:19;7.70;;;5.10;;
75005;SDS011;63553;51.814;4.600;2022-12-22T05:04:45;6.20;;;4.97;;
75005;SDS011;63553;51.814;4.600;2022-12-22T05:07:10;6.80;;;5.27;;
75005;SDS011;63553;51.814;4.600;2022-12-22T05:09:36;7.75;;;5.53;;
75005;SDS011;63553;51.814;4.600;2022-12-22T05:12:01;8.97;;;6.03;;
75005;SDS011;63553;51.814;4.600;2022-12-22T05:14:47;8.43;;;4.72;;
75005;SDS011;63553;51.814;4.600;2022-12-22T05:17:12;7.90;;;5.60;;
75005;SDS011;63553;51.814;4.600;2022-12-22T05:19:37;10.07;;;5.37;;
75005;SDS011;63553;51.814;4.600;2022-12-22T05:22:03;8.07;;;5.33;;
75005;SDS011;63553;51.814;4.600;2022-12-22T05:24:28;7.30;;;5.10;;
75005;SDS011;63553;51.814;4.600;2022-12-22T05:26:53;7.90;;;5.13;;
75005;SDS011;63553;51.814;4.600;2022-12-22T05:29:18;8.10;;;5.37;;
75005;SDS011;63553;51.814;4.600;2022-12-22T05:31:44;8.50;;;5.63;;
75005;SDS011;63553;51.814;4.600;2022-12-22T05:34:09;7.73;;;5.23;;
75005;SDS011;63553;51.814;4.600;2022-12-22T05:36:34;7.90;;;5.90;;
75005;SDS011;63553;51.814;4.600;2022-12-22T05:39:00;7.87;;;5.47;;
75005;SDS011;63553;51.814;4.600;2022-12-22T05:41:25;15.47;;;7.27;;
75005;SDS011;63553;51.814;4.600;2022-12-22T05:43:50;99.00;;;12.77;;
75005;SDS011;63553;51.814;4.600;2022-12-22T05:46:16;124.77;;;20.23;;
75005;SDS011;63553;51.814;4.600;2022-12-22T05:48:41;261.00;;;24.83;;
75005;SDS011;63553;51.814;4.600;2022-12-22T05:51:07;782.50;;;70.70;;
75005;SDS011;63553;51.814;4.600;2022-12-22T05:53:33;35.30;;;12.43;;
75005;SDS011;63553;51.814;4.600;2022-12-22T05:55:58;22.00;;;10.10;;
75005;SDS011;63553;51.814;4.600;2022-12-22T05:58:24;31.17;;;11.30;;
75005;SDS011;63553;51.814;4.600;2022-12-22T06:00:49;24.33;;;10.38;;
75005;SDS011;63553;51.814;4.600;2022-12-22T06:03:15;23.23;;;10.70;;
75005;SDS011;63553;51.814;4.600;2022-12-22T06:05:40;37.93;;;11.03;;
75005;SDS011;63553;51.814;4.600;2022-12-22T06:08:05;15.82;;;8.18;;
75005;SDS011;63553;51.814;4.600;2022-12-22T06:10:31;19.07;;;8.47;;
75005;SDS011;63553;51.814;4.600;2022-12-22T06:12:57;16.17;;;7.88;;
75005;SDS011;63553;51.814;4.600;2022-12-22T06:15:23;12.13;;;7.00;;
75005;SDS011;63553;51.814;4.600;2022-12-22T06:17:48;10.17;;;6.63;;
75005;SDS011;63553;51.814;4.600;2022-12-22T06:20:13;11.13;;;6.07;;
75005;SDS011;63553;51.814;4.600;2022-12-22T06:22:39;9.50;;;5.73;;
75005;SDS011;63553;51.814;4.600;2022-12-22T06:25:04;8.90;;;5.30;;
75005;SDS011;63553;51.814;4.600;2022-12-22T06:27:30;9.13;;;6.20;;
75005;SDS011;63553;51.814;4.600;2022-12-22T06:29:55;9.50;;;6.03;;
75005;SDS011;63553;51.814;4.600;2022-12-22T06:32:20;10.32;;;6.20;;
75005;SDS011;63553;51.814;4.600;2022-12-22T06:34:46;11.00;;;6.00;;
75005;SDS011;63553;51.814;4.600;2022-12-22T06:37:11;12.77;;;6.10;;
75005;SDS011;63553;51.814;4.600;2022-12-22T06:39:36;8.43;;;5.13;;
75005;SDS011;63553;51.814;4.600;2022-12-22T06:42:02;10.40;;;5.93;;
75005;SDS011;63553;51.814;4.600;2022-12-22T06:44:46;10.75;;;5.78;;
75005;SDS011;63553;51.814;4.600;2022-12-22T06:47:14;9.13;;;5.25;;
75005;SDS011;63553;51.814;4.600;2022-12-22T06:49:40;10.10;;;5.28;;
75005;SDS011;63553;51.814;4.600;2022-12-22T06:52:06;8.85;;;4.63;;
75005;SDS011;63553;51.814;4.600;2022-12-22T06:54:32;9.98;;;5.75;;
75005;SDS011;63553;51.814;4.600;2022-12-22T06:56:58;9.30;;;5.50;;
75005;SDS011;63553;51.814;4.600;2022-12-22T06:59:23;9.43;;;5.53;;
75005;SDS011;63553;51.814;4.600;2022-12-22T07:01:49;10.90;;;5.83;;
75005;SDS011;63553;51.814;4.600;2022-12-22T07:04:14;11.17;;;6.27;;
75005;SDS011;63553;51.814;4.600;2022-12-22T07:06:43;9.88;;;5.40;;
75005;SDS011;63553;51.814;4.600;2022-12-22T07:09:09;8.30;;;5.32;;
75005;SDS011;63553;51.814;4.600;2022-12-22T07:11:34;8.63;;;5.28;;
75005;SDS011;63553;51.814;4.600;2022-12-22T07:13:59;7.40;;;4.87;;
75005;SDS011;63553;51.814;4.600;2022-12-22T07:16:25;10.77;;;6.78;;
75005;SDS011;63553;51.814;4.600;2022-12-22T07:18:50;12.17;;;7.10;;
75005;SDS011;63553;51.814;4.600;2022-12-22T07:21:15;10.63;;;5.90;;
75005;SDS011;63553;51.814;4.600;2022-12-22T07:23:41;11.37;;;6.70;;
75005;SDS011;63553;51.814;4.600;2022-12-22T07:26:07;8.80;;;5.45;;
75005;SDS011;63553;51.814;4.600;2022-12-22T07:28:34;12.25;;;6.30;;
75005;SDS011;63553;51.814;4.600;2022-12-22T07:31:01;10.45;;;6.22;;
75005;SDS011;63553;51.814;4.600;2022-12-22T07:33:27;13.90;;;7.05;;
75005;SDS011;63553;51.814;4.600;2022-12-22T07:38:37;14.60;;;6.55;;
75005;SDS011;63553;51.814;4.600;2022-12-22T07:41:05;12.55;;;6.35;;
75005;SDS011;63553;51.814;4.600;2022-12-22T07:43:52;13.98;;;6.55;;
75005;SDS011;63553;51.814;4.600;2022-12-22T07:46:18;13.82;;;6.20;;
75005;SDS011;63553;51.814;4.600;2022-12-22T07:48:43;14.73;;;6.47;;
75005;SDS011;63553;51.814;4.600;2022-12-22T07:51:32;13.05;;;5.82;;
75005;SDS011;63553;51.814;4.600;2022-12-22T07:53:58;10.63;;;5.88;;
75005;SDS011;63553;51.814;4.600;2022-12-22T07:56:23;11.10;;;6.13;;
75005;SDS011;63553;51.814;4.600;2022-12-22T07:58:48;11.53;;;6.20;;
75005;SDS011;63553;51.814;4.600;2022-12-22T08:01:14;12.57;;;6.10;;
75005;SDS011;63553;51.814;4.600;2022-12-22T08:03:39;12.07;;;6.00;;
75005;SDS011;63553;51.814;4.600;2022-12-22T08:06:04;10.17;;;5.50;;
75005;SDS011;63553;51.814;4.600;2022-12-22T08:08:30;15.10;;;6.32;;
75005;SDS011;63553;51.814;4.600;2022-12-22T08:11:00;12.10;;;6.43;;
75005;SDS011;63553;51.814;4.600;2022-12-22T08:13:26;15.50;;;6.55;;
75005;SDS011;63553;51.814;4.600;2022-12-22T08:15:52;16.67;;;7.20;;
75005;SDS011;63553;51.814;4.600;2022-12-22T08:18:17;13.70;;;6.03;;
75005;SDS011;63553;51.814;4.600;2022-12-22T08:20:47;14.43;;;7.03;;
75005;SDS011;63553;51.814;4.600;2022-12-22T08:23:16;11.45;;;6.20;;
75005;SDS011;63553;51.814;4.600;2022-12-22T08:25:42;13.05;;;6.03;;
75005;SDS011;63553;51.814;4.600;2022-12-22T08:28:08;10.20;;;5.30;;
75005;SDS011;63553;51.814;4.600;2022-12-22T08:30:33;9.63;;;6.07;;
75005;SDS011;63553;51.814;4.600;2022-12-22T08:32:59;11.07;;;5.07;;
75005;SDS011;63553;51.814;4.600;2022-12-22T08:35:25;10.52;;;6.75;;
75005;SDS011;63553;51.814;4.600;2022-12-22T08:37:51;9.88;;;7.53;;
75005;SDS011;63553;51.814;4.600;2022-12-22T08:40:18;11.05;;;6.82;;
75005;SDS011;63553;51.814;4.600;2022-12-22T08:42:46;11.27;;;7.28;;
75005;SDS011;63553;51.814;4.600;2022-12-22T08:45:15;9.15;;;5.03;;
75005;SDS011;63553;51.814;4.600;2022-12-22T08:47:41;11.45;;;6.03;;
75005;SDS011;63553;51.814;4.600;2022-12-22T08:50:06;10.02;;;5.53;;
75005;SDS011;63553;51.814;4.600;2022-12-22T08:52:32;7.88;;;5.38;;
75005;SDS011;63553;51.814;4.600;2022-12-22T08:54:57;6.90;;;4.37;;
75005;SDS011;63553;51.814;4.600;2022-12-22T08:57:23;8.03;;;4.53;;
75005;SDS011;63553;51.814;4.600;2022-12-22T08:59:48;18.05;;;5.13;;
75005;SDS011;63553;51.814;4.600;2022-12-22T09:02:13;6.97;;;3.87;;
75005;SDS011;63553;51.814;4.600;2022-12-22T09:04:39;5.50;;;3.77;;
75005;SDS011;63553;51.814;4.600;2022-12-22T09:07:04;4.90;;;3.83;;
75005;SDS011;63553;51.814;4.600;2022-12-22T09:09:30;7.03;;;4.07;;
75005;SDS011;63553;51.814;4.600;2022-12-22T09:11:57;5.75;;;3.85;;
75005;SDS011;63553;51.814;4.600;2022-12-22T09:14:23;7.05;;;4.25;;
75005;SDS011;63553;51.814;4.600;2022-12-22T09:16:48;8.23;;;4.03;;
75005;SDS011;63553;51.814;4.600;2022-12-22T09:19:14;7.60;;;4.72;;
75005;SDS011;63553;51.814;4.600;2022-12-22T09:21:40;6.68;;;3.67;;
75005;SDS011;63553;51.814;4.600;2022-12-22T09:24:05;7.43;;;4.30;;
75005;SDS011;63553;51.814;4.600;2022-12-22T09:26:31;8.45;;;4.80;;
75005;SDS011;63553;51.814;4.600;2022-12-22T09:28:57;7.43;;;4.57;;
75005;SDS011;63553;51.814;4.600;2022-12-22T09:31:23;8.20;;;4.53;;
75005;SDS011;63553;51.814;4.600;2022-12-22T09:33:49;8.80;;;4.75;;
75005;SDS011;63553;51.814;4.600;2022-12-22T09:36:16;7.43;;;4.15;;
75005;SDS011;63553;51.814;4.600;2022-12-22T09:38:43;5.45;;;3.70;;
75005;SDS011;63553;51.814;4.600;2022-12-22T09:41:17;6.32;;;4.07;;
75005;SDS011;63553;51.814;4.600;2022-12-22T09:44:11;8.05;;;4.38;;
75005;SDS011;63553;51.814;4.600;2022-12-22T09:46:55;9.25;;;5.07;;
75005;SDS011;63553;51.814;4.600;2022-12-22T09:49:23;6.13;;;4.03;;
75005;SDS011;63553;51.814;4.600;2022-12-22T09:51:50;6.28;;;3.70;;
75005;SDS011;63553;51.814;4.600;2022-12-22T09:54:18;5.75;;;3.63;;
75005;SDS011;63553;51.814;4.600;2022-12-22T09:56:44;8.10;;;4.25;;
75005;SDS011;63553;51.814;4.600;2022-12-22T09:59:10;9.73;;;4.17;;
75005;SDS011;63553;51.814;4.600;2022-12-22T10:01:41;7.80;;;4.05;;
75005;SDS011;63553;51.814;4.600;2022-12-22T10:04:31;8.35;;;4.60;;
75005;SDS011;63553;51.814;4.600;2022-12-22T10:10:30;6.15;;;3.35;;
75005;SDS011;63553;51.814;4.600;2022-12-22T10:12:53;6.90;;;3.53;;
75005;SDS011;63553;51.814;4.600;2022-12-22T10:15:20;4.00;;;3.30;;
75005;SDS011;63553;51.814;4.600;2022-12-22T10:17:45;4.68;;;2.97;;
75005;SDS011;63553;51.814;4.600;2022-12-22T10:22:47;7.38;;;3.30;;
75005;SDS011;63553;51.814;4.600;2022-12-22T10:25:37;6.47;;;3.10;;
75005;SDS011;63553;51.814;4.600;2022-12-22T10:28:03;7.57;;;3.50;;
75005;SDS011;63553;51.814;4.600;2022-12-22T10:30:36;6.80;;;3.00;;
75005;SDS011;63553;51.814;4.600;2022-12-22T10:36:03;8.52;;;3.50;;
75005;SDS011;63553;51.814;4.600;2022-12-22T10:38:26;6.80;;;3.22;;
75005;SDS011;63553;51.814;4.600;2022-12-22T10:40:55;5.88;;;3.00;;
75005;SDS011;63553;51.814;4.600;2022-12-22T10:43:24;5.32;;;2.92;;
75005;SDS011;63553;51.814;4.600;2022-12-22T10:45:52;8.02;;;3.80;;
75005;SDS011;63553;51.814;4.600;2022-12-22T10:48:26;6.30;;;3.60;;
75005;SDS011;63553;51.814;4.600;2022-12-22T10:50:57;6.55;;;3.92;;
75005;SDS011;63553;51.814;4.600;2022-12-22T10:56:16;8.88;;;4.80;;
75005;SDS011;63553;51.814;4.600;2022-12-22T10:58:54;9.48;;;5.60;;
75005;SDS011;63553;51.814;4.600;2022-12-22T11:01:25;7.95;;;5.30;;
75005;SDS011;63553;51.814;4.600;2022-12-22T11:03:53;14.43;;;6.88;;
75005;SDS011;63553;51.814;4.600;2022-12-22T11:06:18;9.80;;;5.82;;
75005;SDS011;63553;51.814;4.600;2022-12-22T11:08:44;12.15;;;5.47;;
75005;SDS011;63553;51.814;4.600;2022-12-22T11:11:23;14.23;;;6.82;;
75005;SDS011;63553;51.814;4.600;2022-12-22T11:14:02;8.40;;;5.13;;
75005;SDS011;63553;51.814;4.600;2022-12-22T11:19:24;9.02;;;5.05;;
75005;SDS011;63553;51.814;4.600;2022-12-22T11:35:35;3.50;;;3.20;;
75005;SDS011;63553;51.814;4.600;2022-12-22T11:38:32;5.13;;;3.00;;
75005;SDS011;63553;51.814;4.600;2022-12-22T11:44:05;3.55;;;3.20;;
75005;SDS011;63553;51.814;4.600;2022-12-22T11:52:42;6.07;;;3.28;;
75005;SDS011;63553;51.814;4.600;2022-12-22T11:55:44;4.78;;;3.42;;
75005;SDS011;63553;51.814;4.600;2022-12-22T11:58:37;3.30;;;3.00;;
75005;SDS011;63553;51.814;4.600;2022-12-22T12:04:19;5.00;;;3.15;;
75005;SDS011;63553;51.814;4.600;2022-12-22T12:16:08;3.65;;;3.30;;
75005;SDS011;63553;51.814;4.600;2022-12-22T12:21:50;3.83;;;3.13;;
75005;SDS011;63553;51.814;4.600;2022-12-22T12:35:04;4.60;;;3.60;;
75005;SDS011;63553;51.814;4.600;2022-12-22T12:37:45;4.15;;;3.17;;
75005;SDS011;63553;51.814;4.600;2022-12-22T12:40:37;4.05;;;3.33;;
75005;SDS011;63553;51.814;4.600;2022-12-22T12:43:04;5.25;;;3.78;;
75005;SDS011;63553;51.814;4.600;2022-12-22T12:50:50;5.07;;;3.42;;
75005;SDS011;63553;51.814;4.600;2022-12-22T12:53:17;5.28;;;4.03;;
75005;SDS011;63553;51.814;4.600;2022-12-22T13:05:56;4.05;;;3.58;;
75005;SDS011;63553;51.814;4.600;2022-12-22T13:08:30;4.93;;;4.10;;
75005;SDS011;63553;51.814;4.600;2022-12-22T13:15:48;4.43;;;3.72;;
75005;SDS011;63553;51.814;4.600;2022-12-22T13:20:39;8.43;;;4.57;;
75005;SDS011;63553;51.814;4.600;2022-12-22T13:23:12;4.47;;;3.90;;
75005;SDS011;63553;51.814;4.600;2022-12-22T13:25:40;7.63;;;4.53;;
75005;SDS011;63553;51.814;4.600;2022-12-22T13:28:13;6.13;;;4.60;;
75005;SDS011;63553;51.814;4.600;2022-12-22T13:30:43;5.72;;;4.65;;
75005;SDS011;63553;51.814;4.600;2022-12-22T13:33:11;5.45;;;4.57;;
75005;SDS011;63553;51.814;4.600;2022-12-22T13:35:42;6.03;;;4.85;;
75005;SDS011;63553;51.814;4.600;2022-12-22T13:38:26;6.43;;;4.90;;
75005;SDS011;63553;51.814;4.600;2022-12-22T13:40:53;7.53;;;5.18;;
75005;SDS011;63553;51.814;4.600;2022-12-22T13:43:18;7.15;;;5.60;;
75005;SDS011;63553;51.814;4.600;2022-12-22T13:45:45;5.32;;;4.68;;
75005;SDS011;63553;51.814;4.600;2022-12-22T13:51:02;6.72;;;5.20;;
75005;SDS011;63553;51.814;4.600;2022-12-22T13:53:36;7.57;;;5.28;;
75005;SDS011;63553;51.814;4.600;2022-12-22T13:56:05;5.80;;;4.50;;
75005;SDS011;63553;51.814;4.600;2022-12-22T13:58:34;7.38;;;4.78;;
75005;SDS011;63553;51.814;4.600;2022-12-22T14:01:11;6.82;;;5.13;;
75005;SDS011;63553;51.814;4.600;2022-12-22T14:03:44;5.70;;;4.70;;
75005;SDS011;63553;51.814;4.600;2022-12-22T14:06:36;5.95;;;5.22;;
75005;SDS011;63553;51.814;4.600;2022-12-22T14:09:13;5.93;;;5.10;;
75005;SDS011;63553;51.814;4.600;2022-12-22T14:11:40;5.93;;;5.00;;
75005;SDS011;63553;51.814;4.600;2022-12-22T14:14:09;6.57;;;4.88;;
75005;SDS011;63553;51.814;4.600;2022-12-22T14:16:43;6.97;;;4.97;;
75005;SDS011;63553;51.814;4.600;2022-12-22T14:21:41;6.05;;;5.00;;
75005;SDS011;63553;51.814;4.600;2022-12-22T14:24:10;6.63;;;5.72;;
75005;SDS011;63553;51.814;4.600;2022-12-22T14:26:46;6.97;;;5.45;;
75005;SDS011;63553;51.814;4.600;2022-12-22T14:29:16;7.13;;;5.80;;
75005;SDS011;63553;51.814;4.600;2022-12-22T14:31:55;10.13;;;6.65;;
75005;SDS011;63553;51.814;4.600;2022-12-22T14:34:32;12.13;;;6.45;;
75005;SDS011;63553;51.814;4.600;2022-12-22T14:36:59;9.20;;;6.65;;
75005;SDS011;63553;51.814;4.600;2022-12-22T14:39:26;8.10;;;6.65;;
75005;SDS011;63553;51.814;4.600;2022-12-22T14:42:00;8.60;;;6.85;;
75005;SDS011;63553;51.814;4.600;2022-12-22T14:49:28;8.95;;;7.35;;
75005;SDS011;63553;51.814;4.600;2022-12-22T14:51:54;9.48;;;7.03;;
75005;SDS011;63553;51.814;4.600;2022-12-22T14:54:23;10.70;;;7.97;;
75005;SDS011;63553;51.814;4.600;2022-12-22T14:56:51;10.43;;;7.30;;
75005;SDS011;63553;51.814;4.600;2022-12-22T14:59:22;11.77;;;7.60;;
75005;SDS011;63553;51.814;4.600;2022-12-22T15:02:26;8.38;;;7.10;;
75005;SDS011;63553;51.814;4.600;2022-12-22T15:04:45;9.82;;;7.47;;
75005;SDS011;63553;51.814;4.600;2022-12-22T15:07:18;9.03;;;7.17;;
75005;SDS011;63553;51.814;4.600;2022-12-22T15:09:44;10.65;;;7.53;;
75005;SDS011;63553;51.814;4.600;2022-12-22T15:12:14;10.32;;;8.38;;
75005;SDS011;63553;51.814;4.600;2022-12-22T15:14:41;9.93;;;7.50;;
75005;SDS011;63553;51.814;4.600;2022-12-22T15:17:21;9.18;;;7.22;;
75005;SDS011;63553;51.814;4.600;2022-12-22T15:19:50;8.50;;;7.22;;
75005;SDS011;63553;51.814;4.600;2022-12-22T15:22:21;8.07;;;7.28;;
75005;SDS011;63553;51.814;4.600;2022-12-22T15:24:46;9.63;;;7.38;;
75005;SDS011;63553;51.814;4.600;2022-12-22T15:27:12;9.10;;;6.93;;
75005;SDS011;63553;51.814;4.600;2022-12-22T15:29:37;9.00;;;7.40;;
75005;SDS011;63553;51.814;4.600;2022-12-22T15:32:02;10.83;;;8.00;;
75005;SDS011;63553;51.814;4.600;2022-12-22T15:34:29;8.80;;;7.90;;
75005;SDS011;63553;51.814;4.600;2022-12-22T15:36:56;9.32;;;7.78;;
75005;SDS011;63553;51.814;4.600;2022-12-22T15:39:22;8.77;;;7.88;;
75005;SDS011;63553;51.814;4.600;2022-12-22T15:41:48;8.55;;;7.65;;
75005;SDS011;63553;51.814;4.600;2022-12-22T15:44:14;8.90;;;7.83;;
75005;SDS011;63553;51.814;4.600;2022-12-22T15:46:40;10.10;;;8.10;;
75005;SDS011;63553;51.814;4.600;2022-12-22T15:49:40;9.27;;;8.38;;
75005;SDS011;63553;51.814;4.600;2022-12-22T15:51:59;9.07;;;7.97;;
75005;SDS011;63553;51.814;4.600;2022-12-22T15:54:26;8.90;;;7.90;;
75005;SDS011;63553;51.814;4.600;2022-12-22T15:56:54;9.93;;;7.78;;
75005;SDS011;63553;51.814;4.600;2022-12-22T15:59:21;9.05;;;8.15;;
75005;SDS011;63553;51.814;4.600;2022-12-22T16:01:54;9.30;;;7.70;;
75005;SDS011;63553;51.814;4.600;2022-12-22T16:04:23;8.77;;;7.85;;
75005;SDS011;63553;51.814;4.600;2022-12-22T16:06:49;8.65;;;7.78;;
75005;SDS011;63553;51.814;4.600;2022-12-22T16:09:19;8.02;;;7.20;;
75005;SDS011;63553;51.814;4.600;2022-12-22T16:11:47;9.20;;;7.72;;
75005;SDS011;63553;51.814;4.600;2022-12-22T16:14:13;8.23;;;7.10;;
75005;SDS011;63553;51.814;4.600;2022-12-22T16:16:40;8.70;;;7.47;;
75005;SDS011;63553;51.814;4.600;2022-12-22T16:19:08;8.13;;;7.03;;
75005;SDS011;63553;51.814;4.600;2022-12-22T16:21:40;8.07;;;7.10;;
75005;SDS011;63553;51.814;4.600;2022-12-22T16:24:09;8.55;;;6.97;;
75005;SDS011;63553;51.814;4.600;2022-12-22T16:26:45;9.85;;;8.23;;
75005;SDS011;63553;51.814;4.600;2022-12-22T16:29:12;16.33;;;11.15;;
75005;SDS011;63553;51.814;4.600;2022-12-22T16:31:39;18.42;;;12.10;;
75005;SDS011;63553;51.814;4.600;2022-12-22T16:34:05;21.77;;;14.57;;
75005;SDS011;63553;51.814;4.600;2022-12-22T16:36:30;27.40;;;18.23;;
75005;SDS011;63553;51.814;4.600;2022-12-22T16:38:55;31.23;;;18.17;;
75005;SDS011;63553;51.814;4.600;2022-12-22T16:41:21;29.10;;;18.73;;
75005;SDS011;63553;51.814;4.600;2022-12-22T16:43:48;32.28;;;19.02;;
75005;SDS011;63553;51.814;4.600;2022-12-22T16:46:19;34.63;;;20.23;;
75005;SDS011;63553;51.814;4.600;2022-12-22T16:48:52;38.78;;;20.42;;
75005;SDS011;63553;51.814;4.600;2022-12-22T16:51:29;35.40;;;20.85;;
75005;SDS011;63553;51.814;4.600;2022-12-22T16:53:57;31.95;;;21.55;;
75005;SDS011;63553;51.814;4.600;2022-12-22T16:56:24;34.92;;;22.50;;
75005;SDS011;63553;51.814;4.600;2022-12-22T16:58:52;36.38;;;22.80;;
75005;SDS011;63553;51.814;4.600;2022-12-22T17:03:55;36.00;;;22.15;;
75005;SDS011;63553;51.814;4.600;2022-12-22T17:06:24;37.90;;;24.15;;
75005;SDS011;63553;51.814;4.600;2022-12-22T17:08:50;33.17;;;23.80;;
75005;SDS011;63553;51.814;4.600;2022-12-22T17:11:20;34.43;;;23.70;;
75005;SDS011;63553;51.814;4.600;2022-12-22T17:13:48;36.45;;;24.33;;
75005;SDS011;63553;51.814;4.600;2022-12-22T17:16:17;41.95;;;26.73;;
75005;SDS011;63553;51.814;4.600;2022-12-22T17:18:44;37.42;;;25.27;;
75005;SDS011;63553;51.814;4.600;2022-12-22T17:21:09;39.10;;;25.08;;
75005;SDS011;63553;51.814;4.600;2022-12-22T17:23:38;43.75;;;26.30;;
75005;SDS011;63553;51.814;4.600;2022-12-22T17:26:09;34.92;;;23.75;;